sensor_id;sensor_type;location;lat;lon;timestamp;pressure;altitude;pressure_sealevel;temperature;humidity
35553;BME280;21656;46.054;13.614;2023-01-30T00:01:34;101310.97;;;0.12;100.00
35553;BME280;21656;46.054;13.614;2023-01-30T00:03:59;101314.44;;;0.16;100.00
35553;BME280;21656;46.054;13.614;2023-01-30T00:06:26;101309.16;;;0.16;100.00
35553;BME280;21656;46.054;13.614;2023-01-30T00:08:51;101309.09;;;0.17;100.00
35553;BME280;21656;46.054;13.614;2023-01-30T00:11:18;101296.75;;;0.18;100.00
35553;BME280;21656;46.054;13.614;2023-01-30T00:13:44;101300.44;;;0.11;100.00
35553;BME280;21656;46.054;13.614;2023-01-30T00:16:10;101293.28;;;0.14;100.00
35553;BME280;21656;46.054;13.614;2023-01-30T00:18:37;101289.94;;;0.06;100.00
35553;BME280;21656;46.054;13.614;2023-01-30T00:21:04;101290.78;;;0.08;100.00
35553;BME280;21656;46.054;13.614;2023-01-30T00:23:32;101281.97;;;0.08;100.00
35553;BME280;21656;46.054;13.614;2023-01-30T00:25:58;101291.56;;;0.12;100.00
35553;BME280;21656;46.054;13.614;2023-01-30T00:28:24;101275.41;;;0.22;100.00
35553;BME280;21656;46.054;13.614;2023-01-30T00:30:50;101271.88;;;0.24;100.00
35553;BME280;21656;46.054;13.614;2023-01-30T00:33:16;101278.03;;;0.26;100.00
35553;BME280;21656;46.054;13.614;2023-01-30T00:35:50;101274.44;;;0.27;100.00
35553;BME280;21656;46.054;13.614;2023-01-30T00:38:16;101270.13;;;0.22;100.00
35553;BME280;21656;46.054;13.614;2023-01-30T00:40:42;101274.63;;;0.19;100.00
35553;BME280;21656;46.054;13.614;2023-01-30T00:43:11;101275.94;;;0.01;100.00
35553;BME280;21656;46.054;13.614;2023-01-30T00:45:55;101273.28;;;0.01;100.00
35553;BME280;21656;46.054;13.614;2023-01-30T00:48:39;101267.19;;;-0.03;100.00
35553;BME280;21656;46.054;13.614;2023-01-30T00:51:05;101266.41;;;-0.08;100.00
35553;BME280;21656;46.054;13.614;2023-01-30T00:53:30;101265.34;;;0.01;100.00
35553;BME280;21656;46.054;13.614;2023-01-30T00:55:56;101264.13;;;-0.23;100.00
35553;BME280;21656;46.054;13.614;2023-01-30T00:58:22;101257.84;;;-0.17;100.00
35553;BME280;21656;46.054;13.614;2023-01-30T01:00:48;101257.88;;;-0.19;100.00
35553;BME280;21656;46.054;13.614;2023-01-30T01:03:13;101263.41;;;-0.30;100.00
35553;BME280;21656;46.054;13.614;2023-01-30T01:05:39;101257.97;;;-0.24;100.00
35553;BME280;21656;46.054;13.614;2023-01-30T01:08:04;101253.00;;;-0.39;100.00
35553;BME280;21656;46.054;13.614;2023-01-30T01:10:30;101255.47;;;-0.30;100.00
35553;BME280;21656;46.054;13.614;2023-01-30T01:12:55;101250.88;;;-0.22;100.00
35553;BME280;21656;46.054;13.614;2023-01-30T01:15:23;101247.34;;;-0.22;100.00
35553;BME280;21656;46.054;13.614;2023-01-30T01:17:49;101247.94;;;-0.09;100.00
35553;BME280;21656;46.054;13.614;2023-01-30T01:20:15;101246.25;;;-0.13;100.00
35553;BME280;21656;46.054;13.614;2023-01-30T01:22:41;101240.25;;;-0.20;100.00
35553;BME280;21656;46.054;13.614;2023-01-30T01:25:08;101237.44;;;-0.12;100.00
35553;BME280;21656;46.054;13.614;2023-01-30T01:27:34;101235.63;;;-0.12;100.00
35553;BME280;21656;46.054;13.614;2023-01-30T01:29:59;101229.28;;;-0.05;100.00
35553;BME280;21656;46.054;13.614;2023-01-30T01:32:25;101221.72;;;-0.20;100.00
35553;BME280;21656;46.054;13.614;2023-01-30T01:34:50;101224.38;;;-0.20;100.00
35553;BME280;21656;46.054;13.614;2023-01-30T01:37:16;101231.47;;;-0.22;100.00
35553;BME280;21656;46.054;13.614;2023-01-30T01:39:41;101223.59;;;-0.25;100.00
35553;BME280;21656;46.054;13.614;2023-01-30T01:42:28;101223.53;;;-0.22;100.00
35553;BME280;21656;46.054;13.614;2023-01-30T01:47:22;101215.59;;;-0.22;100.00
35553;BME280;21656;46.054;13.614;2023-01-30T01:49:48;101217.59;;;-0.33;100.00
35553;BME280;21656;46.054;13.614;2023-01-30T01:52:14;101219.16;;;-0.25;100.00
35553;BME280;21656;46.054;13.614;2023-01-30T01:54:45;101223.28;;;-0.50;100.00
35553;BME280;21656;46.054;13.614;2023-01-30T01:57:25;101212.72;;;-0.52;100.00
35553;BME280;21656;46.054;13.614;2023-01-30T02:00:14;101205.44;;;-0.42;100.00
35553;BME280;21656;46.054;13.614;2023-01-30T02:02:42;101213.22;;;-0.36;100.00
35553;BME280;21656;46.054;13.614;2023-01-30T02:05:11;101203.66;;;-0.41;100.00
35553;BME280;21656;46.054;13.614;2023-01-30T02:07:42;101203.53;;;-0.35;100.00
35553;BME280;21656;46.054;13.614;2023-01-30T02:10:16;101203.72;;;-0.43;100.00
35553;BME280;21656;46.054;13.614;2023-01-30T02:12:43;101200.16;;;-0.42;100.00
35553;BME280;21656;46.054;13.614;2023-01-30T02:15:09;101205.25;;;-0.33;100.00
35553;BME280;21656;46.054;13.614;2023-01-30T02:17:35;101202.53;;;-0.30;100.00
35553;BME280;21656;46.054;13.614;2023-01-30T02:30:42;101193.59;;;-0.26;100.00
35553;BME280;21656;46.054;13.614;2023-01-30T02:33:36;101196.56;;;-0.39;100.00
35553;BME280;21656;46.054;13.614;2023-01-30T02:36:40;101187.59;;;-0.32;100.00
35553;BME280;21656;46.054;13.614;2023-01-30T02:42:04;101183.50;;;-0.47;100.00
35553;BME280;21656;46.054;13.614;2023-01-30T02:44:46;101185.97;;;-0.39;100.00
35553;BME280;21656;46.054;13.614;2023-01-30T02:47:18;101186.56;;;-0.27;100.00
35553;BME280;21656;46.054;13.614;2023-01-30T02:49:48;101190.19;;;-0.31;100.00
35553;BME280;21656;46.054;13.614;2023-01-30T02:52:16;101179.28;;;-0.17;100.00
35553;BME280;21656;46.054;13.614;2023-01-30T02:54:41;101176.38;;;-0.08;100.00
35553;BME280;21656;46.054;13.614;2023-01-30T02:57:18;101179.75;;;-0.01;100.00
35553;BME280;21656;46.054;13.614;2023-01-30T02:59:47;101175.38;;;-0.02;100.00
35553;BME280;21656;46.054;13.614;2023-01-30T03:07:38;101160.34;;;0.00;100.00
35553;BME280;21656;46.054;13.614;2023-01-30T03:10:13;101160.56;;;-0.09;100.00
35553;BME280;21656;46.054;13.614;2023-01-30T03:15:38;101146.19;;;-0.01;100.00
35553;BME280;21656;46.054;13.614;2023-01-30T03:18:05;101157.78;;;-0.05;100.00
35553;BME280;21656;46.054;13.614;2023-01-30T03:20:36;101154.34;;;-0.08;100.00
35553;BME280;21656;46.054;13.614;2023-01-30T03:23:02;101148.97;;;-0.05;100.00
35553;BME280;21656;46.054;13.614;2023-01-30T03:25:27;101142.22;;;-0.17;100.00
35553;BME280;21656;46.054;13.614;2023-01-30T03:27:54;101129.25;;;-0.28;100.00
35553;BME280;21656;46.054;13.614;2023-01-30T03:30:20;101132.94;;;-0.35;100.00
35553;BME280;21656;46.054;13.614;2023-01-30T03:32:47;101133.81;;;-0.34;100.00
35553;BME280;21656;46.054;13.614;2023-01-30T03:35:12;101120.84;;;-0.47;100.00
35553;BME280;21656;46.054;13.614;2023-01-30T03:37:39;101118.28;;;-0.50;100.00
35553;BME280;21656;46.054;13.614;2023-01-30T03:40:05;101118.09;;;-0.42;100.00
35553;BME280;21656;46.054;13.614;2023-01-30T03:42:31;101113.84;;;-0.48;100.00
35553;BME280;21656;46.054;13.614;2023-01-30T03:44:56;101121.16;;;-0.59;100.00
35553;BME280;21656;46.054;13.614;2023-01-30T03:47:22;101109.84;;;-0.66;100.00
35553;BME280;21656;46.054;13.614;2023-01-30T07:24:12;101066.47;;;-0.96;100.00
35553;BME280;21656;46.054;13.614;2023-01-30T07:26:38;101056.38;;;-0.78;100.00
35553;BME280;21656;46.054;13.614;2023-01-30T07:29:03;101059.63;;;-0.69;100.00
35553;BME280;21656;46.054;13.614;2023-01-30T07:31:30;101055.66;;;-0.51;100.00
35553;BME280;21656;46.054;13.614;2023-01-30T07:33:55;101063.44;;;-0.43;100.00
35553;BME280;21656;46.054;13.614;2023-01-30T07:36:20;101060.41;;;-0.28;100.00
35553;BME280;21656;46.054;13.614;2023-01-30T07:38:47;101052.41;;;-0.26;100.00
35553;BME280;21656;46.054;13.614;2023-01-30T07:41:13;101048.88;;;-0.25;100.00
35553;BME280;21656;46.054;13.614;2023-01-30T07:43:39;101064.97;;;-0.33;100.00
35553;BME280;21656;46.054;13.614;2023-01-30T07:46:04;101064.50;;;-0.16;100.00
35553;BME280;21656;46.054;13.614;2023-01-30T07:48:29;101073.06;;;-0.05;100.00
35553;BME280;21656;46.054;13.614;2023-01-30T07:50:55;101082.31;;;0.12;100.00
35553;BME280;21656;46.054;13.614;2023-01-30T07:53:21;101078.69;;;0.16;100.00
35553;BME280;21656;46.054;13.614;2023-01-30T07:55:47;101073.78;;;0.33;100.00
35553;BME280;21656;46.054;13.614;2023-01-30T07:58:13;101067.53;;;0.36;100.00
35553;BME280;21656;46.054;13.614;2023-01-30T08:00:40;101077.00;;;0.45;100.00
35553;BME280;21656;46.054;13.614;2023-01-30T08:03:05;101073.41;;;0.47;100.00
35553;BME280;21656;46.054;13.614;2023-01-30T08:05:31;101070.72;;;0.49;100.00
35553;BME280;21656;46.054;13.614;2023-01-30T08:07:56;101068.56;;;0.61;100.00
35553;BME280;21656;46.054;13.614;2023-01-30T08:10:22;101062.31;;;0.64;100.00
35553;BME280;21656;46.054;13.614;2023-01-30T08:12:51;101062.19;;;0.69;100.00
35553;BME280;21656;46.054;13.614;2023-01-30T08:15:16;101063.69;;;0.77;100.00
35553;BME280;21656;46.054;13.614;2023-01-30T08:17:42;101051.75;;;0.92;100.00
35553;BME280;21656;46.054;13.614;2023-01-30T08:20:08;101043.56;;;1.00;100.00
35553;BME280;21656;46.054;13.614;2023-01-30T08:22:33;101041.53;;;1.08;100.00
35553;BME280;21656;46.054;13.614;2023-01-30T08:24:59;101031.59;;;1.15;100.00
35553;BME280;21656;46.054;13.614;2023-01-30T08:27:24;101031.47;;;1.19;100.00
35553;BME280;21656;46.054;13.614;2023-01-30T08:29:50;101030.53;;;1.20;100.00
35553;BME280;21656;46.054;13.614;2023-01-30T08:32:15;101031.28;;;1.24;100.00
35553;BME280;21656;46.054;13.614;2023-01-30T08:34:40;101021.63;;;1.21;100.00
35553;BME280;21656;46.054;13.614;2023-01-30T08:37:06;101014.31;;;1.29;100.00
35553;BME280;21656;46.054;13.614;2023-01-30T08:39:31;101012.56;;;1.28;100.00
35553;BME280;21656;46.054;13.614;2023-01-30T08:41:56;101009.91;;;1.28;100.00
35553;BME280;21656;46.054;13.614;2023-01-30T08:44:22;101014.97;;;1.36;100.00
35553;BME280;21656;46.054;13.614;2023-01-30T08:46:47;101027.97;;;1.44;100.00
35553;BME280;21656;46.054;13.614;2023-01-30T08:49:13;101027.91;;;1.47;100.00
35553;BME280;21656;46.054;13.614;2023-01-30T08:51:38;101028.69;;;1.49;100.00
35553;BME280;21656;46.054;13.614;2023-01-30T08:54:04;101033.00;;;1.53;100.00
35553;BME280;21656;46.054;13.614;2023-01-30T08:56:32;101024.28;;;1.49;100.00
35553;BME280;21656;46.054;13.614;2023-01-30T08:58:57;101020.13;;;1.41;100.00
35553;BME280;21656;46.054;13.614;2023-01-30T09:01:22;101028.13;;;1.39;100.00
35553;BME280;21656;46.054;13.614;2023-01-30T09:03:48;101018.47;;;1.37;100.00
35553;BME280;21656;46.054;13.614;2023-01-30T09:06:13;101016.78;;;1.34;100.00
35553;BME280;21656;46.054;13.614;2023-01-30T09:08:38;101022.22;;;1.31;100.00
35553;BME280;21656;46.054;13.614;2023-01-30T09:11:04;101015.06;;;1.33;100.00
35553;BME280;21656;46.054;13.614;2023-01-30T09:13:31;101020.34;;;1.35;100.00
35553;BME280;21656;46.054;13.614;2023-01-30T09:15:57;101016.50;;;1.43;100.00
35553;BME280;21656;46.054;13.614;2023-01-30T09:18:23;101014.31;;;1.56;100.00
35553;BME280;21656;46.054;13.614;2023-01-30T09:20:49;101002.88;;;1.79;100.00
35553;BME280;21656;46.054;13.614;2023-01-30T09:23:14;101004.28;;;2.14;100.00
35553;BME280;21656;46.054;13.614;2023-01-30T09:25:40;101007.72;;;2.42;100.00
35553;BME280;21656;46.054;13.614;2023-01-30T09:28:05;101019.00;;;2.48;99.73
35553;BME280;21656;46.054;13.614;2023-01-30T09:30:32;101019.59;;;2.78;97.96
35553;BME280;21656;46.054;13.614;2023-01-30T09:32:57;101004.09;;;2.90;97.36
35553;BME280;21656;46.054;13.614;2023-01-30T09:35:23;100999.03;;;3.06;94.22
35553;BME280;21656;46.054;13.614;2023-01-30T09:37:51;100988.16;;;3.12;93.40
35553;BME280;21656;46.054;13.614;2023-01-30T09:40:20;100977.81;;;3.46;92.05
35553;BME280;21656;46.054;13.614;2023-01-30T09:45:40;100970.66;;;3.69;84.63
35553;BME280;21656;46.054;13.614;2023-01-30T09:48:30;100970.53;;;3.93;85.06
35553;BME280;21656;46.054;13.614;2023-01-30T09:55:50;100949.72;;;4.01;80.30
35553;BME280;21656;46.054;13.614;2023-01-30T09:58:20;100948.13;;;3.97;82.18
35553;BME280;21656;46.054;13.614;2023-01-30T10:00:48;100948.19;;;4.16;84.46
35553;BME280;21656;46.054;13.614;2023-01-30T10:03:28;100948.28;;;4.33;82.90
35553;BME280;21656;46.054;13.614;2023-01-30T10:06:10;100937.22;;;4.22;81.56
35553;BME280;21656;46.054;13.614;2023-01-30T10:09:14;100933.78;;;4.39;81.86
35553;BME280;21656;46.054;13.614;2023-01-30T10:27:24;100881.16;;;5.15;72.79
35553;BME280;21656;46.054;13.614;2023-01-30T10:29:56;100878.78;;;4.91;73.21
35553;BME280;21656;46.054;13.614;2023-01-30T10:32:29;100876.28;;;4.69;73.49
35553;BME280;21656;46.054;13.614;2023-01-30T10:35:03;100854.25;;;4.83;75.61
35553;BME280;21656;46.054;13.614;2023-01-30T10:37:39;100848.13;;;4.98;74.45
35553;BME280;21656;46.054;13.614;2023-01-30T10:40:24;100839.97;;;5.19;74.50
35553;BME280;21656;46.054;13.614;2023-01-30T10:43:02;100827.63;;;5.34;72.46
35553;BME280;21656;46.054;13.614;2023-01-30T10:45:46;100820.44;;;5.01;72.52
35553;BME280;21656;46.054;13.614;2023-01-30T10:51:20;100820.28;;;4.87;75.12
35553;BME280;21656;46.054;13.614;2023-01-30T10:53:56;100805.19;;;4.86;75.12
35553;BME280;21656;46.054;13.614;2023-01-30T10:59:21;100808.44;;;5.10;75.29
35553;BME280;21656;46.054;13.614;2023-01-30T11:02:14;100801.75;;;5.01;73.13
35553;BME280;21656;46.054;13.614;2023-01-30T11:07:12;100791.22;;;5.33;73.06
35553;BME280;21656;46.054;13.614;2023-01-30T11:09:43;100777.22;;;5.94;72.04
35553;BME280;21656;46.054;13.614;2023-01-30T11:12:10;100773.50;;;6.44;69.48
35553;BME280;21656;46.054;13.614;2023-01-30T11:14:59;100761.28;;;7.15;67.28
35553;BME280;21656;46.054;13.614;2023-01-30T11:17:34;100777.97;;;7.63;62.80
35553;BME280;21656;46.054;13.614;2023-01-30T11:20:03;100773.59;;;8.03;61.83
35553;BME280;21656;46.054;13.614;2023-01-30T11:22:30;100759.44;;;8.43;60.45
35553;BME280;21656;46.054;13.614;2023-01-30T11:25:14;100744.09;;;8.45;58.53
35553;BME280;21656;46.054;13.614;2023-01-30T11:27:42;100739.06;;;8.53;57.24
35553;BME280;21656;46.054;13.614;2023-01-30T11:32:43;100728.75;;;9.13;56.97
35553;BME280;21656;46.054;13.614;2023-01-30T11:37:40;100710.06;;;9.86;54.05
35553;BME280;21656;46.054;13.614;2023-01-30T11:40:26;100722.41;;;10.02;53.14
35553;BME280;21656;46.054;13.614;2023-01-30T11:43:02;100713.59;;;10.24;53.56
35553;BME280;21656;46.054;13.614;2023-01-30T11:45:31;100688.94;;;10.65;53.01
35553;BME280;21656;46.054;13.614;2023-01-30T11:48:03;100694.38;;;10.41;51.03
35553;BME280;21656;46.054;13.614;2023-01-30T11:50:39;100686.22;;;10.89;51.45
35553;BME280;21656;46.054;13.614;2023-01-30T11:53:25;100669.50;;;10.73;50.96
35553;BME280;21656;46.054;13.614;2023-01-30T11:55:55;100664.06;;;10.97;51.13
35553;BME280;21656;46.054;13.614;2023-01-30T11:58:22;100666.50;;;11.00;50.62
35553;BME280;21656;46.054;13.614;2023-01-30T12:00:48;100663.16;;;10.74;51.11
35553;BME280;21656;46.054;13.614;2023-01-30T12:03:18;100656.69;;;10.76;50.35
35553;BME280;21656;46.054;13.614;2023-01-30T12:05:46;100637.78;;;10.65;51.37
35553;BME280;21656;46.054;13.614;2023-01-30T12:10:56;100632.09;;;11.37;50.95
35553;BME280;21656;46.054;13.614;2023-01-30T12:13:38;100630.50;;;11.57;50.54
35553;BME280;21656;46.054;13.614;2023-01-30T12:19:04;100633.09;;;12.02;48.55
35553;BME280;21656;46.054;13.614;2023-01-30T12:21:48;100624.03;;;12.03;49.19
35553;BME280;21656;46.054;13.614;2023-01-30T12:25:18;100627.41;;;10.83;50.02
35553;BME280;21656;46.054;13.614;2023-01-30T12:30:10;100609.75;;;11.46;51.02
35553;BME280;21656;46.054;13.614;2023-01-30T12:32:41;100576.94;;;11.85;50.00
35553;BME280;21656;46.054;13.614;2023-01-30T12:35:16;100575.94;;;11.97;49.38
35553;BME280;21656;46.054;13.614;2023-01-30T12:40:59;100560.09;;;12.25;47.87
35553;BME280;21656;46.054;13.614;2023-01-30T12:52:22;100570.13;;;12.34;46.65
35553;BME280;21656;46.054;13.614;2023-01-30T12:55:06;100556.88;;;12.10;48.03
35553;BME280;21656;46.054;13.614;2023-01-30T13:06:13;100557.13;;;12.70;47.38
35553;BME280;21656;46.054;13.614;2023-01-30T13:11:41;100571.41;;;11.98;47.71
35553;BME280;21656;46.054;13.614;2023-01-30T13:19:49;100529.78;;;12.63;47.81
35553;BME280;21656;46.054;13.614;2023-01-30T13:25:13;100529.53;;;11.71;49.35
35553;BME280;21656;46.054;13.614;2023-01-30T13:27:51;100522.38;;;12.13;48.82
35553;BME280;21656;46.054;13.614;2023-01-30T13:30:18;100518.63;;;12.26;49.10
35553;BME280;21656;46.054;13.614;2023-01-30T13:32:47;100508.34;;;12.20;47.46
35553;BME280;21656;46.054;13.614;2023-01-30T13:35:23;100513.09;;;11.74;47.77
35553;BME280;21656;46.054;13.614;2023-01-30T13:37:51;100527.25;;;10.67;50.36
35553;BME280;21656;46.054;13.614;2023-01-30T13:40:31;100532.03;;;10.85;50.71
35553;BME280;21656;46.054;13.614;2023-01-30T13:45:47;100523.06;;;11.07;50.24
35553;BME280;21656;46.054;13.614;2023-01-30T13:51:03;100521.72;;;10.91;50.81
35553;BME280;21656;46.054;13.614;2023-01-30T13:56:08;100518.50;;;10.40;51.48
35553;BME280;21656;46.054;13.614;2023-01-30T13:58:52;100521.59;;;10.36;52.65
35553;BME280;21656;46.054;13.614;2023-01-30T14:01:20;100531.78;;;10.19;52.90
35553;BME280;21656;46.054;13.614;2023-01-30T14:03:47;100526.22;;;9.98;53.82
35553;BME280;21656;46.054;13.614;2023-01-30T14:06:35;100527.88;;;9.53;54.86
35553;BME280;21656;46.054;13.614;2023-01-30T14:09:15;100523.69;;;9.25;55.03
35553;BME280;21656;46.054;13.614;2023-01-30T14:12:19;100501.75;;;8.94;55.91
35553;BME280;21656;46.054;13.614;2023-01-30T14:17:30;100480.31;;;8.43;57.62
35553;BME280;21656;46.054;13.614;2023-01-30T14:30:37;100470.44;;;8.31;61.48
35553;BME280;21656;46.054;13.614;2023-01-30T14:38:35;100471.69;;;7.87;64.01
35553;BME280;21656;46.054;13.614;2023-01-30T14:48:43;100475.34;;;7.46;68.19
35553;BME280;21656;46.054;13.614;2023-01-30T15:04:30;100484.03;;;6.95;73.74
35553;BME280;21656;46.054;13.614;2023-01-30T15:06:58;100494.09;;;6.91;75.65
35553;BME280;21656;46.054;13.614;2023-01-30T15:09:26;100484.66;;;6.71;76.90
35553;BME280;21656;46.054;13.614;2023-01-30T15:29:25;100470.22;;;5.72;88.04
35553;BME280;21656;46.054;13.614;2023-01-30T15:32:00;100482.00;;;5.38;91.74
35553;BME280;21656;46.054;13.614;2023-01-30T15:34:28;100486.59;;;5.36;94.09
35553;BME280;21656;46.054;13.614;2023-01-30T15:36:53;100484.88;;;5.35;93.77
35553;BME280;21656;46.054;13.614;2023-01-30T15:39:24;100483.56;;;5.26;95.55
35553;BME280;21656;46.054;13.614;2023-01-30T15:41:51;100495.72;;;5.16;97.14
35553;BME280;21656;46.054;13.614;2023-01-30T15:49:58;100481.09;;;4.75;100.00
35553;BME280;21656;46.054;13.614;2023-01-30T15:52:36;100474.97;;;4.73;100.00
35553;BME280;21656;46.054;13.614;2023-01-30T15:55:05;100484.53;;;4.46;100.00
35553;BME280;21656;46.054;13.614;2023-01-30T15:57:34;100487.25;;;4.44;100.00
35553;BME280;21656;46.054;13.614;2023-01-30T16:00:04;100483.19;;;4.37;100.00
35553;BME280;21656;46.054;13.614;2023-01-30T16:02:32;100487.31;;;4.09;100.00
35553;BME280;21656;46.054;13.614;2023-01-30T16:05:21;100488.97;;;3.95;100.00
35553;BME280;21656;46.054;13.614;2023-01-30T16:07:49;100491.91;;;3.90;100.00
35553;BME280;21656;46.054;13.614;2023-01-30T16:10:26;100489.72;;;3.81;100.00
35553;BME280;21656;46.054;13.614;2023-01-30T16:12:54;100490.56;;;3.64;100.00
35553;BME280;21656;46.054;13.614;2023-01-30T16:18:49;100485.22;;;3.46;100.00
35553;BME280;21656;46.054;13.614;2023-01-30T16:21:21;100504.28;;;3.20;100.00
35553;BME280;21656;46.054;13.614;2023-01-30T16:24:06;100500.13;;;3.14;100.00
35553;BME280;21656;46.054;13.614;2023-01-30T16:26:34;100499.34;;;3.12;100.00
35553;BME280;21656;46.054;13.614;2023-01-30T16:29:03;100507.75;;;3.22;100.00
35553;BME280;21656;46.054;13.614;2023-01-30T16:31:37;100500.09;;;3.33;100.00
35553;BME280;21656;46.054;13.614;2023-01-30T16:34:03;100500.03;;;3.35;100.00
35553;BME280;21656;46.054;13.614;2023-01-30T16:36:32;100507.44;;;3.28;100.00
35553;BME280;21656;46.054;13.614;2023-01-30T16:39:02;100513.44;;;3.14;100.00
35553;BME280;21656;46.054;13.614;2023-01-30T16:49:23;100534.25;;;2.87;100.00
35553;BME280;21656;46.054;13.614;2023-01-30T16:51:59;100529.47;;;2.75;100.00
35553;BME280;21656;46.054;13.614;2023-01-30T16:54:28;100541.06;;;2.74;100.00
35553;BME280;21656;46.054;13.614;2023-01-30T16:56:57;100543.28;;;2.83;100.00
35553;BME280;21656;46.054;13.614;2023-01-30T16:59:31;100533.28;;;2.69;100.00
35553;BME280;21656;46.054;13.614;2023-01-30T17:01:58;100527.88;;;2.71;100.00
35553;BME280;21656;46.054;13.614;2023-01-30T17:04:28;100538.22;;;2.58;100.00
35553;BME280;21656;46.054;13.614;2023-01-30T17:06:56;100536.91;;;2.48;100.00
35553;BME280;21656;46.054;13.614;2023-01-30T17:09:41;100531.38;;;2.33;100.00
35553;BME280;21656;46.054;13.614;2023-01-30T17:17:41;100543.75;;;1.93;100.00
35553;BME280;21656;46.054;13.614;2023-01-30T17:20:09;100553.00;;;2.05;100.00
35553;BME280;21656;46.054;13.614;2023-01-30T17:22:36;100556.09;;;2.15;100.00
35553;BME280;21656;46.054;13.614;2023-01-30T17:25:06;100551.06;;;2.09;100.00
35553;BME280;21656;46.054;13.614;2023-01-30T17:27:38;100570.38;;;2.12;100.00
35553;BME280;21656;46.054;13.614;2023-01-30T17:30:15;100565.00;;;2.14;100.00
35553;BME280;21656;46.054;13.614;2023-01-30T17:32:41;100559.97;;;2.08;100.00
35553;BME280;21656;46.054;13.614;2023-01-30T17:35:07;100573.09;;;1.90;100.00
35553;BME280;21656;46.054;13.614;2023-01-30T17:37:33;100568.63;;;1.70;100.00
35553;BME280;21656;46.054;13.614;2023-01-30T17:39:59;100573.97;;;1.69;100.00
35553;BME280;21656;46.054;13.614;2023-01-30T17:42:25;100580.78;;;1.54;100.00
35553;BME280;21656;46.054;13.614;2023-01-30T17:44:51;100585.63;;;1.44;100.00
35553;BME280;21656;46.054;13.614;2023-01-30T17:47:16;100572.03;;;1.30;100.00
35553;BME280;21656;46.054;13.614;2023-01-30T17:49:42;100569.19;;;1.35;100.00
35553;BME280;21656;46.054;13.614;2023-01-30T17:52:08;100561.28;;;1.33;100.00
35553;BME280;21656;46.054;13.614;2023-01-30T17:54:35;100562.28;;;1.30;100.00
35553;BME280;21656;46.054;13.614;2023-01-30T17:57:03;100569.72;;;1.21;100.00
35553;BME280;21656;46.054;13.614;2023-01-30T17:59:29;100577.72;;;1.43;100.00
35553;BME280;21656;46.054;13.614;2023-01-30T18:01:55;100587.38;;;1.44;100.00
35553;BME280;21656;46.054;13.614;2023-01-30T18:04:21;100582.25;;;1.39;100.00
35553;BME280;21656;46.054;13.614;2023-01-30T18:06:52;100594.94;;;1.55;100.00
35553;BME280;21656;46.054;13.614;2023-01-30T18:09:20;100590.22;;;1.61;100.00
35553;BME280;21656;46.054;13.614;2023-01-30T18:11:47;100593.38;;;1.71;100.00
35553;BME280;21656;46.054;13.614;2023-01-30T18:14:14;100605.72;;;1.72;100.00
35553;BME280;21656;46.054;13.614;2023-01-30T18:16:40;100596.22;;;1.66;100.00
35553;BME280;21656;46.054;13.614;2023-01-30T18:19:08;100598.50;;;1.54;100.00
35553;BME280;21656;46.054;13.614;2023-01-30T18:21:35;100595.34;;;1.44;100.00
35553;BME280;21656;46.054;13.614;2023-01-30T18:24:03;100601.09;;;1.55;100.00
35553;BME280;21656;46.054;13.614;2023-01-30T18:26:29;100600.44;;;1.50;100.00
35553;BME280;21656;46.054;13.614;2023-01-30T18:28:55;100605.28;;;1.39;100.00
35553;BME280;21656;46.054;13.614;2023-01-30T18:31:20;100605.41;;;1.36;100.00
35553;BME280;21656;46.054;13.614;2023-01-30T18:33:50;100609.34;;;1.25;100.00
35553;BME280;21656;46.054;13.614;2023-01-30T18:36:17;100616.06;;;1.34;100.00
35553;BME280;21656;46.054;13.614;2023-01-30T18:38:43;100617.53;;;1.43;100.00
35553;BME280;21656;46.054;13.614;2023-01-30T18:41:14;100602.38;;;1.23;100.00
35553;BME280;21656;46.054;13.614;2023-01-30T18:43:40;100607.69;;;1.23;100.00
35553;BME280;21656;46.054;13.614;2023-01-30T18:46:09;100600.75;;;1.42;100.00
35553;BME280;21656;46.054;13.614;2023-01-30T18:48:35;100601.91;;;1.35;100.00
35553;BME280;21656;46.054;13.614;2023-01-30T18:51:08;100620.59;;;1.54;100.00
35553;BME280;21656;46.054;13.614;2023-01-30T18:53:36;100628.56;;;1.32;100.00
35553;BME280;21656;46.054;13.614;2023-01-30T18:56:02;100629.03;;;1.20;100.00
35553;BME280;21656;46.054;13.614;2023-01-30T18:58:32;100628.56;;;1.08;100.00
35553;BME280;21656;46.054;13.614;2023-01-30T19:00:59;100641.09;;;1.05;100.00
35553;BME280;21656;46.054;13.614;2023-01-30T19:03:25;100648.13;;;1.06;100.00
35553;BME280;21656;46.054;13.614;2023-01-30T19:05:51;100642.50;;;1.14;100.00
35553;BME280;21656;46.054;13.614;2023-01-30T19:08:17;100645.53;;;1.04;100.00
35553;BME280;21656;46.054;13.614;2023-01-30T19:10:43;100646.81;;;0.94;100.00
35553;BME280;21656;46.054;13.614;2023-01-30T19:13:11;100631.50;;;1.01;100.00
35553;BME280;21656;46.054;13.614;2023-01-30T19:16:02;100647.53;;;0.98;100.00
35553;BME280;21656;46.054;13.614;2023-01-30T19:18:30;100653.41;;;0.82;100.00
35553;BME280;21656;46.054;13.614;2023-01-30T19:21:02;100651.19;;;0.70;100.00
35553;BME280;21656;46.054;13.614;2023-01-30T19:23:28;100661.22;;;0.87;100.00
35553;BME280;21656;46.054;13.614;2023-01-30T19:25:57;100660.38;;;0.85;100.00
35553;BME280;21656;46.054;13.614;2023-01-30T19:28:28;100671.94;;;0.84;100.00
35553;BME280;21656;46.054;13.614;2023-01-30T19:30:54;100677.16;;;0.85;100.00
35553;BME280;21656;46.054;13.614;2023-01-30T19:33:19;100672.00;;;0.81;100.00
35553;BME280;21656;46.054;13.614;2023-01-30T19:35:45;100686.72;;;0.66;100.00
35553;BME280;21656;46.054;13.614;2023-01-30T19:38:11;100671.81;;;0.62;100.00